createdAt,value
2017-03-09T00:01:00.192Z,66
2017-03-09T00:02:13.715Z,66
2017-03-09T00:03:28.097Z,66
2017-03-09T00:04:42.956Z,66
2017-03-09T00:05:56.423Z,66
2017-03-09T00:07:10.273Z,66
2017-03-09T00:08:24.295Z,66
2017-03-09T00:09:39.055Z,66
2017-03-09T00:10:53.002Z,66
2017-03-09T00:12:06.952Z,66
2017-03-09T00:13:20.505Z,66
2017-03-09T00:14:34.539Z,66
2017-03-09T00:15:48.443Z,66
2017-03-09T00:17:01.914Z,66
2017-03-09T00:18:16.660Z,66
2017-03-09T00:19:30.925Z,66
2017-03-09T00:20:44.435Z,66
2017-03-09T00:21:57.957Z,66
2017-03-09T00:23:11.867Z,66
2017-03-09T00:24:25.847Z,66
2017-03-09T00:25:39.748Z,66
2017-03-09T00:26:53.807Z,66
2017-03-09T00:28:07.304Z,67
2017-03-09T00:29:21.804Z,67
2017-03-09T00:30:35.743Z,67
2017-03-09T00:31:49.515Z,67
2017-03-09T00:33:03.905Z,67
2017-03-09T00:34:17.798Z,67
2017-03-09T00:35:32.159Z,66
2017-03-09T00:36:45.667Z,66
2017-03-09T00:38:00.364Z,66
2017-03-09T00:39:14.755Z,66
2017-03-09T00:40:28.715Z,66
2017-03-09T00:41:42.578Z,66
2017-03-09T00:42:57.138Z,66
2017-03-09T00:44:11.402Z,66
2017-03-09T00:45:25.538Z,66
2017-03-09T00:46:39.032Z,66
2017-03-09T00:47:52.599Z,66
2017-03-09T00:49:06.503Z,66
2017-03-09T00:50:23.081Z,66
2017-03-09T00:51:37.022Z,67
2017-03-09T00:52:51.149Z,67
2017-03-09T00:54:05.465Z,67
2017-03-09T00:55:19.927Z,67
2017-03-09T00:56:33.898Z,67
2017-03-09T00:57:47.490Z,67
2017-03-09T00:59:01.486Z,66
2017-03-09T01:00:15.024Z,66
2017-03-09T01:01:29.089Z,66
2017-03-09T01:02:43.956Z,66
2017-03-09T01:03:57.473Z,66
2017-03-09T01:05:11.439Z,66
2017-03-09T01:06:25.442Z,66
2017-03-09T01:07:39.023Z,66
2017-03-09T01:08:52.751Z,66
2017-03-09T01:10:06.684Z,66
2017-03-09T01:11:20.128Z,66
2017-03-09T01:12:33.707Z,66
2017-03-09T01:13:47.202Z,66
2017-03-09T01:15:01.308Z,66
2017-03-09T01:16:15.205Z,66
2017-03-09T01:17:29.256Z,67
2017-03-09T01:18:42.755Z,66
2017-03-09T01:19:56.254Z,67
2017-03-09T01:21:10.509Z,67
2017-03-09T01:22:24.437Z,67
2017-03-09T01:23:37.914Z,66
2017-03-09T01:25:17.575Z,66
2017-03-09T01:26:31.519Z,67
2017-03-09T01:27:45.499Z,67
2017-03-09T01:28:59.865Z,67
2017-03-09T01:30:13.308Z,67
2017-03-09T01:31:27.288Z,66
2017-03-09T01:32:41.229Z,66
2017-03-09T01:33:54.812Z,66
2017-03-09T01:35:08.313Z,66
2017-03-09T01:36:22.093Z,66
2017-03-09T01:37:36.681Z,66
2017-03-09T01:38:50.479Z,66
2017-03-09T01:40:05.618Z,66
2017-03-09T01:41:19.155Z,66
2017-03-09T01:42:33.104Z,66
2017-03-09T01:43:46.543Z,66
2017-03-09T01:45:00.348Z,66
2017-03-09T01:46:14.004Z,66
2017-03-09T01:47:27.905Z,66
2017-03-09T01:48:41.414Z,66
2017-03-09T01:49:55.113Z,66
2017-03-09T01:51:09.468Z,66
2017-03-09T01:52:23.091Z,66
2017-03-09T01:53:37.005Z,66
2017-03-09T01:54:50.472Z,67
2017-03-09T01:56:10.874Z,67
2017-03-09T01:57:30.675Z,67
2017-03-09T01:58:44.262Z,67
2017-03-09T02:00:03.871Z,67
2017-03-09T02:01:18.356Z,67
2017-03-09T02:02:31.787Z,67
2017-03-09T02:03:45.729Z,67
2017-03-09T02:04:59.171Z,67
2017-03-09T02:06:12.596Z,67
2017-03-09T02:07:28.267Z,67
2017-03-09T02:08:42.183Z,67
2017-03-09T02:09:55.742Z,67
2017-03-09T02:11:09.252Z,67
2017-03-09T02:12:22.664Z,67
2017-03-09T02:13:36.161Z,67
2017-03-09T02:14:49.879Z,67
2017-03-09T02:16:03.290Z,67
2017-03-09T02:17:16.747Z,67
2017-03-09T02:18:30.173Z,67
2017-03-09T02:19:43.733Z,67
2017-03-09T02:20:57.467Z,67
2017-03-09T02:22:10.954Z,67
2017-03-09T02:23:24.835Z,67
2017-03-09T02:24:38.395Z,67
2017-03-09T02:25:51.834Z,67
2017-03-09T02:27:05.626Z,67
2017-03-09T02:28:19.472Z,67
2017-03-09T02:29:33.105Z,67
2017-03-09T02:30:46.980Z,67
2017-03-09T02:32:01.251Z,67
2017-03-09T02:33:15.395Z,67
2017-03-09T02:34:28.803Z,67
2017-03-09T02:35:42.850Z,67
2017-03-09T02:36:56.287Z,67
2017-03-09T02:38:09.779Z,67
2017-03-09T02:39:23.483Z,67
2017-03-09T02:40:36.974Z,67
2017-03-09T02:41:50.628Z,67
2017-03-09T02:43:04.365Z,67
2017-03-09T02:44:18.220Z,67
2017-03-09T02:45:32.214Z,67
2017-03-09T02:46:45.629Z,67
2017-03-09T02:47:59.127Z,67
2017-03-09T02:49:12.555Z,67
2017-03-09T02:50:26.006Z,66
2017-03-09T02:51:40.218Z,66
2017-03-09T02:52:54.101Z,66
2017-03-09T02:54:07.549Z,66
2017-03-09T02:55:20.992Z,66
2017-03-09T02:56:34.965Z,66
2017-03-09T02:57:49.071Z,66
2017-03-09T02:59:02.522Z,66
2017-03-09T03:00:16.409Z,66
2017-03-09T03:01:29.976Z,66
2017-03-09T03:02:43.888Z,66
2017-03-09T03:03:57.582Z,66
2017-03-09T03:05:11.045Z,66
2017-03-09T03:06:24.475Z,66
2017-03-09T03:07:37.966Z,66
2017-03-09T03:08:51.903Z,66
2017-03-09T03:10:05.631Z,66
2017-03-09T03:11:19.092Z,66
2017-03-09T03:12:32.566Z,66
2017-03-09T03:13:45.998Z,66
2017-03-09T03:14:59.448Z,66
2017-03-09T03:16:13.188Z,66
2017-03-09T03:17:26.666Z,66
2017-03-09T03:18:40.111Z,66
2017-03-09T03:19:53.512Z,66
2017-03-09T03:21:07.363Z,66
2017-03-09T03:22:21.078Z,66
2017-03-09T03:23:36.709Z,66
2017-03-09T03:24:50.160Z,66
2017-03-09T03:26:03.603Z,66
2017-03-09T03:27:17.884Z,66
2017-03-09T03:28:32.600Z,66
2017-03-09T03:29:46.072Z,66
2017-03-09T03:30:59.939Z,66
2017-03-09T03:32:13.367Z,66
2017-03-09T03:33:27.015Z,66
2017-03-09T03:34:40.808Z,66
2017-03-09T03:35:54.700Z,66
2017-03-09T03:37:08.230Z,66
2017-03-09T03:38:21.736Z,66
2017-03-09T03:39:35.665Z,66
2017-03-09T03:40:49.543Z,66
2017-03-09T03:42:03.056Z,66
2017-03-09T03:43:16.582Z,66
2017-03-09T03:44:30.384Z,66
2017-03-09T03:45:43.987Z,66
2017-03-09T03:46:57.849Z,66
2017-03-09T03:48:11.372Z,66
2017-03-09T03:49:25.234Z,66
2017-03-09T03:50:39.201Z,66
2017-03-09T03:51:52.809Z,66
2017-03-09T03:53:06.838Z,66
2017-03-09T03:54:26.756Z,66
2017-03-09T03:55:41.210Z,66
2017-03-09T03:56:55.317Z,66
2017-03-09T03:58:09.027Z,66
2017-03-09T03:59:23.186Z,66
2017-03-09T04:00:36.788Z,66
2017-03-09T04:01:50.335Z,66
2017-03-09T04:03:03.810Z,66
2017-03-09T04:04:18.117Z,66
2017-03-09T04:05:31.871Z,66
2017-03-09T04:06:45.427Z,66
2017-03-09T04:07:59.305Z,66
2017-03-09T04:09:13.660Z,66
2017-03-09T04:10:27.163Z,66
2017-03-09T04:11:40.962Z,66
2017-03-09T04:12:54.527Z,66
2017-03-09T04:14:08.093Z,66
2017-03-09T04:15:22.046Z,67
2017-03-09T04:16:36.102Z,66
2017-03-09T04:17:50.394Z,67
2017-03-09T04:19:04.299Z,67
2017-03-09T04:20:17.728Z,66
2017-03-09T04:24:46.444Z,66
2017-03-09T04:25:59.923Z,66
2017-03-09T04:27:14.246Z,66
2017-03-09T04:28:27.753Z,66
2017-03-09T04:29:41.291Z,66
2017-03-09T04:30:55.034Z,66
2017-03-09T04:32:09.059Z,66
2017-03-09T04:33:23.339Z,66
2017-03-09T04:34:37.459Z,66
2017-03-09T04:35:51.035Z,66
2017-03-09T04:37:05.163Z,66
2017-03-09T04:38:19.039Z,67
2017-03-09T04:39:33.057Z,67
2017-03-09T04:40:46.945Z,67
2017-03-09T04:42:02.648Z,67
2017-03-09T04:43:16.385Z,67
2017-03-09T04:44:30.240Z,67
2017-03-09T04:45:43.701Z,67
2017-03-09T04:46:57.247Z,67
2017-03-09T04:48:11.093Z,67
2017-03-09T04:49:25.270Z,67
2017-03-09T04:50:39.502Z,67
2017-03-09T04:51:53.056Z,67
2017-03-09T04:53:06.633Z,67
2017-03-09T04:54:20.142Z,67
2017-03-09T04:55:34.925Z,67
2017-03-09T04:56:49.008Z,67
2017-03-09T04:58:02.534Z,67
2017-03-09T04:59:16.058Z,67
2017-03-09T05:00:29.669Z,67
2017-03-09T05:01:44.434Z,67
2017-03-09T05:02:58.130Z,67
2017-03-09T05:04:11.747Z,67
2017-03-09T05:05:25.689Z,67
2017-03-09T05:06:39.335Z,67
2017-03-09T05:07:53.679Z,67
2017-03-09T05:09:07.153Z,67
2017-03-09T05:10:20.623Z,67
2017-03-09T05:11:34.502Z,67
2017-03-09T05:12:47.952Z,67
2017-03-09T05:14:01.721Z,67
2017-03-09T05:15:15.168Z,67
2017-03-09T05:16:28.581Z,67
2017-03-09T05:17:42.125Z,67
2017-03-09T05:18:55.636Z,67
2017-03-09T05:20:09.810Z,67
2017-03-09T05:21:23.239Z,67
2017-03-09T05:22:37.256Z,67
2017-03-09T05:23:51.135Z,67
2017-03-09T05:25:04.583Z,67
2017-03-09T05:26:18.363Z,67
2017-03-09T05:27:32.204Z,67
2017-03-09T05:28:45.662Z,67
2017-03-09T05:29:59.165Z,67
2017-03-09T05:31:12.700Z,67
2017-03-09T05:32:27.017Z,67
2017-03-09T05:33:40.470Z,67
2017-03-09T05:34:54.469Z,67
2017-03-09T05:36:07.885Z,67
2017-03-09T05:37:21.913Z,67
2017-03-09T05:38:35.725Z,67
2017-03-09T05:40:46.841Z,67
2017-03-09T05:43:30.202Z,67
2017-03-09T05:47:49.432Z,67
2017-03-09T05:49:03.267Z,67
2017-03-09T05:50:16.750Z,67
2017-03-09T05:51:30.166Z,67
2017-03-09T05:52:43.625Z,67
2017-03-09T05:53:57.174Z,67
2017-03-09T05:55:10.902Z,67
2017-03-09T05:56:25.187Z,67
2017-03-09T05:57:38.612Z,67
2017-03-09T05:58:52.065Z,67
2017-03-09T06:00:05.550Z,67
2017-03-09T06:01:19.287Z,67
2017-03-09T06:02:32.862Z,67
2017-03-09T06:03:48.486Z,67
2017-03-09T06:05:02.004Z,67
2017-03-09T06:06:15.435Z,67
2017-03-09T06:07:29.583Z,67
2017-03-09T06:08:43.580Z,67
2017-03-09T06:09:57.188Z,67
2017-03-09T06:11:12.023Z,67
2017-03-09T06:12:25.464Z,67
2017-03-09T06:13:39.482Z,67
2017-03-09T06:14:53.080Z,67
2017-03-09T06:16:07.261Z,67
2017-03-09T06:17:20.743Z,67
2017-03-09T06:18:34.224Z,67
2017-03-09T06:19:48.398Z,67
2017-03-09T06:21:02.294Z,67
2017-03-09T06:22:15.790Z,67
2017-03-09T06:23:29.253Z,67
2017-03-09T06:24:43.620Z,67
2017-03-09T06:25:57.467Z,67
2017-03-09T06:27:11.068Z,67
2017-03-09T06:28:24.962Z,67
2017-03-09T06:29:38.404Z,67
2017-03-09T06:30:51.918Z,67
2017-03-09T06:32:05.714Z,67
2017-03-09T06:33:19.180Z,67
2017-03-09T06:34:32.993Z,67
2017-03-09T06:35:46.674Z,67
2017-03-09T06:37:00.938Z,67
2017-03-09T06:38:14.697Z,67
2017-03-09T06:39:28.560Z,67
2017-03-09T06:40:42.222Z,67
2017-03-09T06:41:55.909Z,67
2017-03-09T06:43:10.162Z,67
2017-03-09T06:44:24.002Z,67
2017-03-09T06:45:37.451Z,67
2017-03-09T06:46:51.486Z,67
2017-03-09T06:48:04.961Z,67
2017-03-09T06:49:18.404Z,67
2017-03-09T06:50:32.297Z,68
2017-03-09T06:51:46.338Z,68
2017-03-09T06:53:31.787Z,68
2017-03-09T06:54:45.244Z,68
2017-03-09T06:55:58.694Z,68
2017-03-09T06:57:12.265Z,68
2017-03-09T06:58:28.805Z,68
2017-03-09T06:59:42.661Z,68
2017-03-09T07:00:56.160Z,68
2017-03-09T07:02:10.171Z,68
2017-03-09T07:03:24.044Z,68
2017-03-09T07:04:37.702Z,68
2017-03-09T07:05:51.194Z,68
2017-03-09T07:07:04.747Z,68
2017-03-09T07:08:18.253Z,68
2017-03-09T07:09:31.695Z,68
2017-03-09T07:10:45.251Z,68
2017-03-09T07:11:59.089Z,68
2017-03-09T07:13:12.559Z,68
2017-03-09T07:14:25.987Z,68
2017-03-09T07:15:39.912Z,68
2017-03-09T07:16:53.366Z,68
2017-03-09T07:18:07.283Z,68
2017-03-09T07:19:21.145Z,68
2017-03-09T07:20:36.797Z,68
2017-03-09T07:21:50.258Z,68
2017-03-09T07:23:03.805Z,68
2017-03-09T07:24:17.732Z,68
2017-03-09T07:25:31.638Z,68
2017-03-09T07:26:45.117Z,68
2017-03-09T07:27:58.600Z,68
2017-03-09T07:29:12.113Z,68
2017-03-09T07:30:25.587Z,68
2017-03-09T07:31:39.016Z,68
2017-03-09T07:32:52.473Z,68
2017-03-09T07:34:06.074Z,68
2017-03-09T07:35:19.963Z,68
2017-03-09T07:36:33.420Z,68
2017-03-09T07:37:47.517Z,68
2017-03-09T07:39:01.024Z,68
2017-03-09T07:40:14.492Z,68
2017-03-09T07:41:27.984Z,68
2017-03-09T07:42:41.489Z,68
2017-03-09T07:43:55.351Z,68
2017-03-09T07:45:08.864Z,68
2017-03-09T07:46:22.326Z,69
2017-03-09T07:47:35.794Z,69
2017-03-09T07:48:49.244Z,69
2017-03-09T07:50:02.817Z,69
2017-03-09T07:51:16.284Z,69
2017-03-09T07:52:30.193Z,69
2017-03-09T07:53:43.823Z,69
2017-03-09T07:54:57.376Z,69
2017-03-09T07:56:10.836Z,69
2017-03-09T07:57:24.291Z,69
2017-03-09T07:58:37.746Z,69
2017-03-09T07:59:51.241Z,69
2017-03-09T08:01:04.797Z,69
2017-03-09T08:02:18.247Z,69
2017-03-09T08:03:31.672Z,69
2017-03-09T08:04:45.100Z,69
2017-03-09T08:05:58.750Z,69
2017-03-09T08:07:12.186Z,69
2017-03-09T08:08:27.643Z,69
2017-03-09T08:09:41.502Z,69
2017-03-09T08:10:59.007Z,69
2017-03-09T08:12:12.935Z,69
2017-03-09T08:13:27.949Z,69
2017-03-09T08:14:46.305Z,69
2017-03-09T08:15:59.773Z,69
2017-03-09T08:17:58.006Z,68
2017-03-09T08:19:11.468Z,69
2017-03-09T08:20:24.925Z,69
2017-03-09T08:21:38.427Z,69
2017-03-09T08:22:52.278Z,69
2017-03-09T08:25:09.974Z,69
2017-03-09T08:26:23.426Z,69
2017-03-09T08:27:36.969Z,69
2017-03-09T08:28:50.359Z,69
2017-03-09T08:30:03.801Z,69
2017-03-09T08:31:18.288Z,69
2017-03-09T08:32:32.239Z,69
2017-03-09T08:33:45.687Z,69
2017-03-09T08:34:59.549Z,69
2017-03-09T08:36:12.972Z,69
2017-03-09T08:37:27.139Z,69
2017-03-09T08:39:55.645Z,69
2017-03-09T08:41:09.101Z,69
2017-03-09T08:42:22.537Z,69
2017-03-09T08:43:36.034Z,69
2017-03-09T08:44:49.532Z,69
2017-03-09T08:46:02.989Z,69
2017-03-09T08:47:16.444Z,69
2017-03-09T08:48:29.962Z,69
2017-03-09T08:49:43.411Z,69
2017-03-09T08:50:57.251Z,69
2017-03-09T08:52:10.712Z,69
2017-03-09T08:53:24.352Z,69
2017-03-09T08:54:37.791Z,69
2017-03-09T08:55:51.257Z,69
2017-03-09T08:57:04.786Z,69
2017-03-09T08:58:18.663Z,69
2017-03-09T08:59:32.533Z,69
2017-03-09T09:00:46.043Z,69
2017-03-09T09:01:59.534Z,69
2017-03-09T09:03:12.977Z,69
2017-03-09T09:04:26.701Z,69
2017-03-09T09:05:40.136Z,69
2017-03-09T09:06:53.635Z,69
2017-03-09T09:08:07.444Z,69
2017-03-09T09:09:21.285Z,69
2017-03-09T09:10:34.765Z,69
2017-03-09T09:11:48.210Z,69
2017-03-09T09:13:02.657Z,69
2017-03-09T09:14:16.105Z,69
2017-03-09T09:15:29.947Z,69
2017-03-09T09:16:43.437Z,69
2017-03-09T09:17:57.423Z,69
2017-03-09T09:19:10.894Z,69
2017-03-09T09:20:24.324Z,69
2017-03-09T09:21:37.756Z,69
2017-03-09T09:22:51.947Z,69
2017-03-09T09:24:05.373Z,69
2017-03-09T09:25:18.934Z,69
2017-03-09T09:26:32.372Z,69
2017-03-09T09:27:46.228Z,69
2017-03-09T09:29:00.255Z,69
2017-03-09T09:30:13.746Z,69
2017-03-09T09:31:27.480Z,69
2017-03-09T09:32:40.938Z,69
2017-03-09T09:33:54.496Z,69
2017-03-09T09:35:07.926Z,69
2017-03-09T09:36:21.361Z,69
2017-03-09T09:37:35.820Z,69
2017-03-09T09:38:49.350Z,69
2017-03-09T09:40:02.810Z,69
2017-03-09T09:41:16.258Z,69
2017-03-09T09:42:30.589Z,68
2017-03-09T09:43:44.078Z,69
2017-03-09T09:44:57.666Z,69
2017-03-09T09:46:11.520Z,69
2017-03-09T09:47:25.409Z,69
2017-03-09T09:48:39.366Z,69
2017-03-09T09:49:53.032Z,69
2017-03-09T09:51:06.880Z,69
2017-03-09T09:52:20.743Z,69
2017-03-09T09:53:34.647Z,69
2017-03-09T09:54:50.876Z,69
2017-03-09T09:56:04.306Z,69
2017-03-09T09:57:17.776Z,69
2017-03-09T09:58:31.267Z,69
2017-03-09T09:59:44.724Z,69
2017-03-09T10:00:58.289Z,69
2017-03-09T10:02:12.195Z,69
2017-03-09T10:03:25.677Z,69
2017-03-09T10:04:39.237Z,69
2017-03-09T10:05:52.861Z,69
2017-03-09T10:07:07.133Z,69
2017-03-09T10:08:21.027Z,69
2017-03-09T10:09:34.553Z,69
2017-03-09T10:10:48.846Z,70
2017-03-09T10:12:02.381Z,70
2017-03-09T10:13:15.928Z,70
2017-03-09T10:14:29.843Z,70
2017-03-09T10:15:43.345Z,70
2017-03-09T10:16:57.796Z,70
2017-03-09T10:18:11.309Z,70
2017-03-09T10:19:25.663Z,70
2017-03-09T10:20:39.150Z,70
2017-03-09T10:21:52.763Z,70
2017-03-09T10:23:06.307Z,70
2017-03-09T10:24:21.037Z,70
2017-03-09T10:25:34.849Z,70
2017-03-09T10:26:48.882Z,70
2017-03-09T10:28:02.436Z,70
2017-03-09T10:29:15.941Z,70
2017-03-09T10:30:29.933Z,70
2017-03-09T10:31:44.369Z,70
2017-03-09T10:32:58.330Z,70
2017-03-09T10:34:12.678Z,70
2017-03-09T10:35:26.368Z,70
2017-03-09T10:36:40.592Z,70
2017-03-09T10:37:54.234Z,70
2017-03-09T10:39:08.142Z,70
2017-03-09T10:40:21.648Z,70
2017-03-09T10:41:35.263Z,70
2017-03-09T10:42:49.260Z,70
2017-03-09T10:44:03.147Z,70
2017-03-09T10:45:17.083Z,70
2017-03-09T10:46:30.784Z,70
2017-03-09T10:47:44.373Z,70
2017-03-09T10:48:57.884Z,71
2017-03-09T10:50:12.663Z,71
2017-03-09T10:51:26.139Z,71
2017-03-09T10:52:39.624Z,71
2017-03-09T10:53:53.209Z,71
2017-03-09T10:55:07.365Z,71
2017-03-09T10:56:20.875Z,71
2017-03-09T10:57:34.835Z,71
2017-03-09T10:58:48.406Z,71
2017-03-09T11:00:02.341Z,71
2017-03-09T11:01:16.131Z,71
2017-03-09T11:02:30.075Z,71
2017-03-09T11:03:43.692Z,71
2017-03-09T11:04:57.967Z,71
2017-03-09T11:06:11.907Z,71
2017-03-09T11:07:26.557Z,71
2017-03-09T11:08:40.584Z,71
2017-03-09T11:09:54.573Z,71
2017-03-09T11:11:10.350Z,71
2017-03-09T11:12:24.023Z,71
2017-03-09T11:13:37.924Z,71
2017-03-09T11:14:51.423Z,71
2017-03-09T11:16:05.352Z,71
2017-03-09T11:17:18.892Z,72
2017-03-09T11:18:33.181Z,72
2017-03-09T11:19:47.157Z,72
2017-03-09T11:21:01.073Z,72
2017-03-09T11:22:14.613Z,72
2017-03-09T11:23:28.126Z,72
2017-03-09T11:24:41.702Z,72
2017-03-09T11:25:56.063Z,72
2017-03-09T11:27:09.735Z,72
2017-03-09T11:28:24.083Z,73
2017-03-09T11:29:37.579Z,73
2017-03-09T11:30:51.540Z,73
2017-03-09T11:32:05.865Z,73
2017-03-09T11:33:20.072Z,73
2017-03-09T11:34:33.595Z,73
2017-03-09T11:35:47.156Z,73
2017-03-09T11:37:00.640Z,73
2017-03-09T11:38:14.551Z,73
2017-03-09T11:39:28.468Z,74
2017-03-09T11:40:41.992Z,74
2017-03-09T11:41:55.934Z,74
2017-03-09T11:43:09.665Z,74
2017-03-09T11:44:23.938Z,74
2017-03-09T11:45:37.446Z,74
2017-03-09T11:46:51.001Z,74
2017-03-09T11:48:04.523Z,74
2017-03-09T11:49:18.438Z,74
2017-03-09T11:50:32.097Z,74
2017-03-09T11:51:45.586Z,74
2017-03-09T11:52:59.119Z,74
2017-03-09T11:54:13.014Z,74
2017-03-09T11:55:26.551Z,74
2017-03-09T11:56:40.471Z,74
2017-03-09T11:57:54.522Z,74
2017-03-09T11:59:08.442Z,74
2017-03-09T12:00:22.048Z,74
2017-03-09T12:01:36.088Z,74
2017-03-09T12:02:49.642Z,74
2017-03-09T12:04:03.112Z,74
2017-03-09T12:05:16.594Z,74
2017-03-09T12:06:30.582Z,74
2017-03-09T12:07:44.120Z,74
2017-03-09T12:08:57.978Z,74
2017-03-09T12:10:11.495Z,74
2017-03-09T12:11:25.374Z,74
2017-03-09T12:12:38.810Z,74
2017-03-09T12:13:52.412Z,74
2017-03-09T12:15:05.930Z,74
2017-03-09T12:16:19.832Z,74
2017-03-09T12:17:33.775Z,74
2017-03-09T12:18:47.850Z,74
2017-03-09T12:20:01.344Z,74
2017-03-09T12:21:15.271Z,74
2017-03-09T12:22:28.810Z,74
2017-03-09T12:23:42.419Z,74
2017-03-09T12:24:56.317Z,74
2017-03-09T12:26:09.801Z,74
2017-03-09T12:27:25.500Z,73
2017-03-09T12:28:39.498Z,73
2017-03-09T12:29:53.035Z,73
2017-03-09T12:31:06.624Z,73
2017-03-09T12:32:20.678Z,73
2017-03-09T12:33:34.300Z,73
2017-03-09T12:34:47.801Z,73
2017-03-09T12:36:01.262Z,73
2017-03-09T12:37:15.592Z,73
2017-03-09T12:38:29.457Z,73
2017-03-09T12:39:43.041Z,73
2017-03-09T12:40:56.621Z,73
2017-03-09T12:42:10.337Z,73
2017-03-09T12:43:24.249Z,73
2017-03-09T12:44:37.781Z,73
2017-03-09T12:45:51.781Z,73
2017-03-09T12:47:05.271Z,73
2017-03-09T12:48:19.235Z,73
2017-03-09T12:49:33.090Z,73
2017-03-09T12:50:47.174Z,74
2017-03-09T12:52:01.843Z,74
2017-03-09T12:53:15.487Z,74
2017-03-09T12:54:29.017Z,74
2017-03-09T12:55:42.549Z,74
2017-03-09T12:56:56.507Z,74
2017-03-09T12:58:10.300Z,74
2017-03-09T12:59:24.243Z,74
2017-03-09T13:00:37.897Z,74
2017-03-09T13:01:51.464Z,74
2017-03-09T13:03:05.029Z,74
2017-03-09T13:04:18.555Z,74
2017-03-09T13:05:32.003Z,74
2017-03-09T13:06:46.434Z,74
2017-03-09T13:08:00.334Z,74
2017-03-09T13:09:13.886Z,75
2017-03-09T13:10:28.315Z,75
2017-03-09T13:11:42.196Z,75
2017-03-09T13:12:55.719Z,75
2017-03-09T13:14:09.285Z,75
2017-03-09T13:15:24.059Z,75
2017-03-09T13:16:37.664Z,75
2017-03-09T13:17:51.127Z,75
2017-03-09T13:19:04.682Z,75
2017-03-09T13:20:18.192Z,75
2017-03-09T13:21:32.788Z,75
2017-03-09T13:22:46.700Z,75
2017-03-09T13:24:00.629Z,75
2017-03-09T13:25:14.128Z,75
2017-03-09T13:26:27.790Z,75
2017-03-09T13:27:41.977Z,75
2017-03-09T13:28:55.449Z,75
2017-03-09T13:30:08.935Z,75
2017-03-09T13:31:22.531Z,75
2017-03-09T13:32:36.180Z,75
2017-03-09T13:33:50.105Z,75
2017-03-09T13:35:03.617Z,75
2017-03-09T13:36:17.533Z,75
2017-03-09T13:37:32.038Z,76
2017-03-09T13:38:46.323Z,76
2017-03-09T13:40:00.185Z,76
2017-03-09T13:41:13.637Z,76
2017-03-09T13:42:27.549Z,76
2017-03-09T13:43:44.056Z,76
2017-03-09T13:44:57.563Z,76
2017-03-09T13:46:11.040Z,76
2017-03-09T13:47:24.493Z,76
2017-03-09T13:48:38.031Z,76
2017-03-09T13:49:51.555Z,76
2017-03-09T13:51:04.993Z,76
2017-03-09T13:52:18.495Z,76
2017-03-09T13:53:33.054Z,76
2017-03-09T13:54:46.568Z,76
2017-03-09T13:56:00.460Z,76
2017-03-09T13:57:13.942Z,76
2017-03-09T13:58:27.836Z,75
2017-03-09T13:59:41.687Z,75
2017-03-09T14:00:55.110Z,75
2017-03-09T14:02:09.023Z,75
2017-03-09T14:03:22.501Z,75
2017-03-09T14:04:36.626Z,75
2017-03-09T14:05:50.339Z,75
2017-03-09T14:07:04.233Z,75
2017-03-09T14:08:17.669Z,75
2017-03-09T14:09:31.580Z,75
2017-03-09T14:10:45.062Z,75
2017-03-09T14:11:58.812Z,75
2017-03-09T14:13:12.342Z,75
2017-03-09T14:14:26.272Z,75
2017-03-09T14:15:58.980Z,75
2017-03-09T14:17:12.429Z,75
2017-03-09T14:18:25.908Z,75
2017-03-09T14:19:40.191Z,75
2017-03-09T14:20:54.208Z,75
2017-03-09T14:22:07.692Z,75
2017-03-09T14:23:21.229Z,75
2017-03-09T14:24:34.701Z,75
2017-03-09T14:25:48.295Z,75
2017-03-09T14:27:02.582Z,75
2017-03-09T14:28:16.927Z,75
2017-03-09T14:29:30.647Z,75
2017-03-09T14:30:44.163Z,75
2017-03-09T14:31:57.723Z,75
2017-03-09T14:33:11.187Z,75
2017-03-09T14:34:24.632Z,75
2017-03-09T14:35:38.709Z,75
2017-03-09T14:36:52.311Z,75
2017-03-09T14:38:05.787Z,75
2017-03-09T14:39:19.258Z,75
2017-03-09T14:40:32.725Z,75
2017-03-09T14:41:46.420Z,75
2017-03-09T14:42:59.928Z,75
2017-03-09T14:44:13.853Z,75
2017-03-09T14:45:27.412Z,75
2017-03-09T14:47:57.566Z,75
2017-03-09T14:49:11.041Z,75
2017-03-09T14:50:25.118Z,75
2017-03-09T14:51:39.521Z,75
2017-03-09T14:52:53.564Z,75
2017-03-09T14:54:07.694Z,75
2017-03-09T14:55:22.103Z,75
2017-03-09T14:56:35.634Z,75
2017-03-09T14:57:49.149Z,75
2017-03-09T14:59:47.371Z,75
2017-03-09T15:01:00.865Z,75
2017-03-09T15:02:16.579Z,75
2017-03-09T15:03:30.486Z,75
2017-03-09T15:04:44.046Z,75
2017-03-09T15:05:57.510Z,75
2017-03-09T15:07:11.429Z,75
2017-03-09T15:08:24.907Z,75
2017-03-09T15:09:38.463Z,75
2017-03-09T15:10:52.045Z,75
2017-03-09T15:12:06.120Z,75
2017-03-09T15:13:19.800Z,75
2017-03-09T15:14:33.383Z,75
2017-03-09T15:15:47.931Z,75
2017-03-09T15:17:01.432Z,75
2017-03-09T15:18:14.930Z,75
2017-03-09T15:19:28.458Z,75
2017-03-09T15:20:42.048Z,75
2017-03-09T15:21:55.935Z,75
2017-03-09T15:23:09.481Z,76
2017-03-09T15:24:22.960Z,76
2017-03-09T15:25:36.449Z,76
2017-03-09T15:26:50.048Z,75
2017-03-09T15:28:03.555Z,75
2017-03-09T15:29:59.736Z,75
2017-03-09T15:31:13.444Z,75
2017-03-09T15:32:27.523Z,75
2017-03-09T15:33:41.028Z,75
2017-03-09T15:34:54.571Z,75
2017-03-09T15:36:08.441Z,75
2017-03-09T15:37:21.972Z,75
2017-03-09T15:38:35.418Z,75
2017-03-09T15:39:49.323Z,74
2017-03-09T15:41:03.204Z,74
2017-03-09T15:42:32.530Z,74
2017-03-09T15:43:46.463Z,74
2017-03-09T15:45:09.163Z,74
2017-03-09T15:46:32.508Z,74
2017-03-09T15:47:57.662Z,74
2017-03-09T15:49:21.755Z,74
2017-03-09T15:50:35.949Z,74
2017-03-09T15:51:49.839Z,74
2017-03-09T15:53:04.325Z,74
2017-03-09T15:54:17.794Z,74
2017-03-09T15:55:57.490Z,74
2017-03-09T15:57:10.949Z,74
2017-03-09T15:58:24.668Z,74
2017-03-09T15:59:38.136Z,74
2017-03-09T16:00:51.608Z,74
2017-03-09T16:02:05.552Z,74
2017-03-09T16:03:19.583Z,74
2017-03-09T16:04:34.848Z,74
2017-03-09T16:05:49.867Z,75
2017-03-09T16:07:04.147Z,74
2017-03-09T16:08:17.698Z,75
2017-03-09T16:09:31.415Z,75
2017-03-09T16:10:44.967Z,75
2017-03-09T16:11:58.456Z,75
2017-03-09T16:13:12.857Z,75
2017-03-09T16:14:26.803Z,74
2017-03-09T16:15:40.562Z,74
2017-03-09T16:16:54.029Z,74
2017-03-09T16:18:07.481Z,74
2017-03-09T16:19:20.965Z,74
2017-03-09T16:20:37.120Z,74
2017-03-09T16:21:50.866Z,74
2017-03-09T16:23:04.465Z,74
2017-03-09T16:24:18.052Z,74
2017-03-09T16:25:32.342Z,74
2017-03-09T16:26:45.903Z,74
2017-03-09T16:27:59.645Z,74
2017-03-09T16:29:13.114Z,74
2017-03-09T16:30:26.701Z,74
2017-03-09T16:31:40.223Z,74
2017-03-09T16:32:53.681Z,74
2017-03-09T16:34:07.464Z,74
2017-03-09T16:35:21.079Z,74
2017-03-09T16:36:34.511Z,74
2017-03-09T16:37:48.486Z,74
2017-03-09T16:39:02.048Z,74
2017-03-09T16:40:15.933Z,74
2017-03-09T16:41:30.435Z,74
2017-03-09T16:42:43.914Z,74
2017-03-09T16:43:58.560Z,74
2017-03-09T16:45:13.185Z,74
2017-03-09T16:46:27.836Z,74
2017-03-09T16:47:41.295Z,74
2017-03-09T16:48:54.779Z,74
2017-03-09T16:50:08.718Z,74
2017-03-09T16:51:22.859Z,74
2017-03-09T16:52:36.802Z,74
2017-03-09T16:53:50.979Z,74
2017-03-09T16:55:04.498Z,74
2017-03-09T16:56:18.084Z,74
2017-03-09T16:57:31.686Z,74
2017-03-09T16:58:45.453Z,74
2017-03-09T16:59:59.365Z,74
2017-03-09T17:01:13.805Z,74
2017-03-09T17:02:27.255Z,74
2017-03-09T17:03:41.156Z,74
2017-03-09T17:04:55.914Z,74
2017-03-09T17:06:09.375Z,74
2017-03-09T17:07:22.894Z,74
2017-03-09T17:08:36.369Z,74
2017-03-09T17:09:50.254Z,74
2017-03-09T17:11:03.707Z,74
2017-03-09T17:12:17.310Z,74
2017-03-09T17:13:30.832Z,74
2017-03-09T17:14:44.368Z,74
2017-03-09T17:15:57.820Z,74
2017-03-09T17:17:16.816Z,74
2017-03-09T17:18:31.389Z,73
2017-03-09T17:19:45.295Z,73
2017-03-09T17:20:59.598Z,73
2017-03-09T17:22:13.083Z,73
2017-03-09T17:23:26.566Z,73
2017-03-09T17:24:40.079Z,73
2017-03-09T17:25:53.534Z,73
2017-03-09T17:27:07.003Z,73
2017-03-09T17:28:21.589Z,73
2017-03-09T17:29:35.907Z,73
2017-03-09T17:30:49.470Z,73
2017-03-09T17:32:03.634Z,73
2017-03-09T17:33:17.434Z,73
2017-03-09T17:34:30.979Z,73
2017-03-09T17:35:45.192Z,73
2017-03-09T17:37:01.721Z,73
2017-03-09T17:38:15.305Z,73
2017-03-09T17:39:28.795Z,73
2017-03-09T17:40:42.299Z,73
2017-03-09T17:41:56.076Z,73
2017-03-09T17:43:09.655Z,73
2017-03-09T17:44:23.150Z,73
2017-03-09T17:45:37.112Z,73
2017-03-09T17:46:50.598Z,73
2017-03-09T17:48:04.453Z,73
2017-03-09T17:49:18.079Z,73
2017-03-09T17:50:31.562Z,72